sensor_id;sensor_type;location;lat;lon;timestamp;P1;durP1;ratioP1;P2;durP2;ratioP2
63093;SDS011;49183;51.380;0.098;2022-09-09T00:06:09;23.55;;;12.48;;
63093;SDS011;49183;51.380;0.098;2022-09-09T00:09:23;23.08;;;13.20;;
63093;SDS011;49183;51.380;0.098;2022-09-09T00:22:14;37.70;;;17.17;;
63093;SDS011;49183;51.380;0.098;2022-09-09T00:25:23;28.83;;;14.50;;
63093;SDS011;49183;51.380;0.098;2022-09-09T00:28:30;22.48;;;12.20;;
63093;SDS011;49183;51.380;0.098;2022-09-09T00:31:37;30.63;;;11.98;;
63093;SDS011;49183;51.380;0.098;2022-09-09T00:34:46;25.23;;;13.02;;
63093;SDS011;49183;51.380;0.098;2022-09-09T00:38:22;31.40;;;15.80;;
63093;SDS011;49183;51.380;0.098;2022-09-09T00:41:29;24.48;;;12.73;;
63093;SDS011;49183;51.380;0.098;2022-09-09T00:48:04;24.23;;;13.95;;
63093;SDS011;49183;51.380;0.098;2022-09-09T00:55:00;24.65;;;13.23;;
63093;SDS011;49183;51.380;0.098;2022-09-09T00:58:15;30.45;;;16.00;;
63093;SDS011;49183;51.380;0.098;2022-09-09T01:01:16;33.58;;;17.45;;
63093;SDS011;49183;51.380;0.098;2022-09-09T01:04:19;36.53;;;18.27;;
63093;SDS011;49183;51.380;0.098;2022-09-09T01:07:27;36.30;;;19.73;;
63093;SDS011;49183;51.380;0.098;2022-09-09T01:17:32;23.00;;;14.77;;
63093;SDS011;49183;51.380;0.098;2022-09-09T01:21:13;25.88;;;15.20;;
63093;SDS011;49183;51.380;0.098;2022-09-09T01:24:38;29.73;;;18.50;;
63093;SDS011;49183;51.380;0.098;2022-09-09T01:28:03;28.97;;;16.30;;
63093;SDS011;49183;51.380;0.098;2022-09-09T01:31:17;24.67;;;14.00;;
63093;SDS011;49183;51.380;0.098;2022-09-09T01:34:25;26.92;;;14.48;;
63093;SDS011;49183;51.380;0.098;2022-09-09T01:37:29;23.38;;;15.35;;
63093;SDS011;49183;51.380;0.098;2022-09-09T01:40:30;27.33;;;15.57;;
63093;SDS011;49183;51.380;0.098;2022-09-09T01:43:32;20.63;;;14.65;;
63093;SDS011;49183;51.380;0.098;2022-09-09T01:46:33;30.23;;;16.27;;
63093;SDS011;49183;51.380;0.098;2022-09-09T01:49:35;31.67;;;16.58;;
63093;SDS011;49183;51.380;0.098;2022-09-09T01:52:39;22.88;;;15.73;;
63093;SDS011;49183;51.380;0.098;2022-09-09T01:55:45;27.13;;;16.75;;
63093;SDS011;49183;51.380;0.098;2022-09-09T02:05:38;29.63;;;17.20;;
63093;SDS011;49183;51.380;0.098;2022-09-09T02:08:48;22.65;;;16.20;;
63093;SDS011;49183;51.380;0.098;2022-09-09T02:11:54;29.17;;;17.58;;
63093;SDS011;49183;51.380;0.098;2022-09-09T02:15:07;31.23;;;19.58;;
63093;SDS011;49183;51.380;0.098;2022-09-09T02:18:19;29.23;;;16.98;;
63093;SDS011;49183;51.380;0.098;2022-09-09T02:21:28;27.80;;;15.20;;
63093;SDS011;49183;51.380;0.098;2022-09-09T02:24:32;25.30;;;17.13;;
63093;SDS011;49183;51.380;0.098;2022-09-09T02:27:38;26.08;;;17.25;;
63093;SDS011;49183;51.380;0.098;2022-09-09T02:30:41;28.55;;;14.98;;
63093;SDS011;49183;51.380;0.098;2022-09-09T02:33:57;27.27;;;16.77;;
63093;SDS011;49183;51.380;0.098;2022-09-09T02:37:02;32.15;;;16.85;;
63093;SDS011;49183;51.380;0.098;2022-09-09T02:40:07;26.92;;;15.85;;
63093;SDS011;49183;51.380;0.098;2022-09-09T02:43:14;22.55;;;14.57;;
63093;SDS011;49183;51.380;0.098;2022-09-09T02:56:18;24.00;;;13.23;;
63093;SDS011;49183;51.380;0.098;2022-09-09T02:59:22;23.15;;;13.68;;
63093;SDS011;49183;51.380;0.098;2022-09-09T03:02:25;21.05;;;14.38;;
63093;SDS011;49183;51.380;0.098;2022-09-09T03:05:26;19.88;;;14.10;;
63093;SDS011;49183;51.380;0.098;2022-09-09T03:08:27;20.77;;;14.32;;
63093;SDS011;49183;51.380;0.098;2022-09-09T03:11:40;22.98;;;14.20;;
63093;SDS011;49183;51.380;0.098;2022-09-09T03:14:42;21.13;;;14.07;;
63093;SDS011;49183;51.380;0.098;2022-09-09T03:17:44;22.73;;;14.05;;
63093;SDS011;49183;51.380;0.098;2022-09-09T03:20:46;27.90;;;14.32;;
63093;SDS011;49183;51.380;0.098;2022-09-09T03:23:50;18.95;;;13.55;;
63093;SDS011;49183;51.380;0.098;2022-09-09T03:26:51;20.42;;;12.63;;
63093;SDS011;49183;51.380;0.098;2022-09-09T03:29:52;20.75;;;13.98;;
63093;SDS011;49183;51.380;0.098;2022-09-09T03:32:53;25.98;;;14.10;;
63093;SDS011;49183;51.380;0.098;2022-09-09T03:35:55;22.98;;;14.90;;
63093;SDS011;49183;51.380;0.098;2022-09-09T03:38:56;26.05;;;15.88;;
63093;SDS011;49183;51.380;0.098;2022-09-09T03:41:58;24.63;;;16.30;;
63093;SDS011;49183;51.380;0.098;2022-09-09T03:45:02;24.23;;;13.43;;
63093;SDS011;49183;51.380;0.098;2022-09-09T03:48:08;26.00;;;15.13;;
63093;SDS011;49183;51.380;0.098;2022-09-09T03:51:09;27.52;;;14.73;;
63093;SDS011;49183;51.380;0.098;2022-09-09T03:54:10;18.15;;;13.85;;
63093;SDS011;49183;51.380;0.098;2022-09-09T03:57:11;20.27;;;14.18;;
63093;SDS011;49183;51.380;0.098;2022-09-09T04:00:20;19.27;;;14.25;;
63093;SDS011;49183;51.380;0.098;2022-09-09T04:03:21;23.02;;;14.43;;
63093;SDS011;49183;51.380;0.098;2022-09-09T04:06:23;18.48;;;12.85;;
63093;SDS011;49183;51.380;0.098;2022-09-09T04:09:25;21.88;;;14.32;;
63093;SDS011;49183;51.380;0.098;2022-09-09T04:12:27;17.10;;;13.82;;
63093;SDS011;49183;51.380;0.098;2022-09-09T04:15:28;22.27;;;14.07;;
63093;SDS011;49183;51.380;0.098;2022-09-09T04:18:29;23.88;;;14.70;;
63093;SDS011;49183;51.380;0.098;2022-09-09T04:21:31;21.92;;;13.20;;
63093;SDS011;49183;51.380;0.098;2022-09-09T04:24:35;21.52;;;13.50;;
63093;SDS011;49183;51.380;0.098;2022-09-09T04:27:36;20.08;;;13.27;;
63093;SDS011;49183;51.380;0.098;2022-09-09T04:30:37;18.17;;;13.10;;
63093;SDS011;49183;51.380;0.098;2022-09-09T04:33:38;19.83;;;13.98;;
63093;SDS011;49183;51.380;0.098;2022-09-09T04:36:40;20.95;;;14.32;;
63093;SDS011;49183;51.380;0.098;2022-09-09T04:39:41;20.63;;;14.90;;
63093;SDS011;49183;51.380;0.098;2022-09-09T04:42:43;18.08;;;11.73;;
63093;SDS011;49183;51.380;0.098;2022-09-09T04:45:37;23.27;;;14.07;;
63093;SDS011;49183;51.380;0.098;2022-09-09T04:48:33;21.20;;;13.63;;
63093;SDS011;49183;51.380;0.098;2022-09-09T04:51:36;23.17;;;14.77;;
63093;SDS011;49183;51.380;0.098;2022-09-09T04:54:37;24.33;;;13.43;;
63093;SDS011;49183;51.380;0.098;2022-09-09T04:57:39;22.00;;;15.18;;
63093;SDS011;49183;51.380;0.098;2022-09-09T05:00:42;24.70;;;14.77;;
63093;SDS011;49183;51.380;0.098;2022-09-09T05:03:43;22.85;;;13.45;;
63093;SDS011;49183;51.380;0.098;2022-09-09T05:06:47;25.38;;;15.52;;
63093;SDS011;49183;51.380;0.098;2022-09-09T05:09:48;21.40;;;14.18;;
63093;SDS011;49183;51.380;0.098;2022-09-09T05:12:52;23.23;;;14.23;;
63093;SDS011;49183;51.380;0.098;2022-09-09T05:15:54;24.92;;;15.30;;
63093;SDS011;49183;51.380;0.098;2022-09-09T05:18:55;21.88;;;15.27;;
63093;SDS011;49183;51.380;0.098;2022-09-09T05:21:59;24.05;;;14.95;;
63093;SDS011;49183;51.380;0.098;2022-09-09T05:25:02;23.45;;;14.70;;
63093;SDS011;49183;51.380;0.098;2022-09-09T05:28:03;20.67;;;12.82;;
63093;SDS011;49183;51.380;0.098;2022-09-09T05:31:05;23.52;;;14.18;;
63093;SDS011;49183;51.380;0.098;2022-09-09T05:34:08;20.55;;;13.45;;
63093;SDS011;49183;51.380;0.098;2022-09-09T05:37:09;20.40;;;13.70;;
63093;SDS011;49183;51.380;0.098;2022-09-09T05:40:11;23.85;;;14.48;;
63093;SDS011;49183;51.380;0.098;2022-09-09T05:43:12;20.00;;;14.27;;
63093;SDS011;49183;51.380;0.098;2022-09-09T05:46:14;24.23;;;13.90;;
63093;SDS011;49183;51.380;0.098;2022-09-09T05:49:16;21.35;;;15.30;;
63093;SDS011;49183;51.380;0.098;2022-09-09T05:52:17;20.35;;;14.45;;
63093;SDS011;49183;51.380;0.098;2022-09-09T05:55:19;22.38;;;14.90;;
63093;SDS011;49183;51.380;0.098;2022-09-09T05:58:20;24.02;;;14.98;;
63093;SDS011;49183;51.380;0.098;2022-09-09T06:01:27;24.95;;;15.13;;
63093;SDS011;49183;51.380;0.098;2022-09-09T06:04:36;23.98;;;14.55;;
63093;SDS011;49183;51.380;0.098;2022-09-09T06:07:37;30.42;;;16.15;;
63093;SDS011;49183;51.380;0.098;2022-09-09T06:10:38;26.77;;;16.05;;
63093;SDS011;49183;51.380;0.098;2022-09-09T06:13:39;25.55;;;16.45;;
63093;SDS011;49183;51.380;0.098;2022-09-09T06:16:44;26.90;;;17.73;;
63093;SDS011;49183;51.380;0.098;2022-09-09T06:19:45;32.78;;;16.65;;
63093;SDS011;49183;51.380;0.098;2022-09-09T06:22:46;25.35;;;16.45;;
63093;SDS011;49183;51.380;0.098;2022-09-09T06:25:47;27.42;;;17.05;;
63093;SDS011;49183;51.380;0.098;2022-09-09T06:28:48;26.70;;;15.88;;
63093;SDS011;49183;51.380;0.098;2022-09-09T06:31:52;26.77;;;16.20;;
63093;SDS011;49183;51.380;0.098;2022-09-09T06:34:53;23.33;;;15.02;;
63093;SDS011;49183;51.380;0.098;2022-09-09T06:37:55;28.17;;;16.15;;
63093;SDS011;49183;51.380;0.098;2022-09-09T06:40:58;29.27;;;17.75;;
63093;SDS011;49183;51.380;0.098;2022-09-09T06:44:00;25.40;;;15.00;;
63093;SDS011;49183;51.380;0.098;2022-09-09T06:47:01;27.50;;;15.85;;
63093;SDS011;49183;51.380;0.098;2022-09-09T06:50:02;26.08;;;16.38;;
63093;SDS011;49183;51.380;0.098;2022-09-09T06:53:03;26.98;;;17.02;;
63093;SDS011;49183;51.380;0.098;2022-09-09T06:59:13;24.63;;;15.38;;
63093;SDS011;49183;51.380;0.098;2022-09-09T07:02:14;28.13;;;15.02;;
63093;SDS011;49183;51.380;0.098;2022-09-09T07:05:15;22.65;;;15.88;;
63093;SDS011;49183;51.380;0.098;2022-09-09T07:08:16;26.80;;;16.45;;
63093;SDS011;49183;51.380;0.098;2022-09-09T07:11:19;24.73;;;14.70;;
63093;SDS011;49183;51.380;0.098;2022-09-09T07:14:22;28.75;;;15.77;;
63093;SDS011;49183;51.380;0.098;2022-09-09T07:17:25;23.15;;;15.68;;
63093;SDS011;49183;51.380;0.098;2022-09-09T07:20:27;28.17;;;14.98;;
63093;SDS011;49183;51.380;0.098;2022-09-09T07:23:28;23.33;;;14.23;;
63093;SDS011;49183;51.380;0.098;2022-09-09T07:26:30;26.23;;;14.90;;
63093;SDS011;49183;51.380;0.098;2022-09-09T07:29:31;25.02;;;16.45;;
63093;SDS011;49183;51.380;0.098;2022-09-09T07:32:32;28.77;;;15.55;;
63093;SDS011;49183;51.380;0.098;2022-09-09T07:35:33;24.95;;;16.13;;
63093;SDS011;49183;51.380;0.098;2022-09-09T07:38:47;27.40;;;15.10;;
63093;SDS011;49183;51.380;0.098;2022-09-09T07:41:49;27.17;;;17.35;;
63093;SDS011;49183;51.380;0.098;2022-09-09T07:44:50;23.10;;;16.10;;
63093;SDS011;49183;51.380;0.098;2022-09-09T07:47:51;27.77;;;16.45;;
63093;SDS011;49183;51.380;0.098;2022-09-09T07:50:52;27.98;;;16.88;;
63093;SDS011;49183;51.380;0.098;2022-09-09T07:53:55;22.27;;;17.35;;
63093;SDS011;49183;51.380;0.098;2022-09-09T07:56:58;26.42;;;18.45;;
63093;SDS011;49183;51.380;0.098;2022-09-09T07:59:59;27.70;;;19.75;;
63093;SDS011;49183;51.380;0.098;2022-09-09T08:02:49;23.50;;;18.55;;
63093;SDS011;49183;51.380;0.098;2022-09-09T08:05:51;28.67;;;18.67;;
63093;SDS011;49183;51.380;0.098;2022-09-09T08:08:52;31.55;;;19.70;;
63093;SDS011;49183;51.380;0.098;2022-09-09T08:11:54;26.55;;;18.02;;
63093;SDS011;49183;51.380;0.098;2022-09-09T08:14:57;31.17;;;20.20;;
63093;SDS011;49183;51.380;0.098;2022-09-09T08:17:58;25.70;;;18.73;;
63093;SDS011;49183;51.380;0.098;2022-09-09T08:21:06;23.20;;;18.75;;
63093;SDS011;49183;51.380;0.098;2022-09-09T08:24:08;26.35;;;20.10;;
63093;SDS011;49183;51.380;0.098;2022-09-09T08:27:13;27.58;;;19.48;;
63093;SDS011;49183;51.380;0.098;2022-09-09T08:30:14;24.70;;;17.42;;
63093;SDS011;49183;51.380;0.098;2022-09-09T08:33:15;25.75;;;19.02;;
63093;SDS011;49183;51.380;0.098;2022-09-09T08:36:19;27.70;;;20.48;;
63093;SDS011;49183;51.380;0.098;2022-09-09T08:39:22;23.23;;;17.38;;
63093;SDS011;49183;51.380;0.098;2022-09-09T08:45:50;22.27;;;17.88;;
63093;SDS011;49183;51.380;0.098;2022-09-09T08:52:16;22.13;;;17.25;;
63093;SDS011;49183;51.380;0.098;2022-09-09T08:58:54;22.80;;;17.45;;
63093;SDS011;49183;51.380;0.098;2022-09-09T09:02:00;22.77;;;17.00;;
63093;SDS011;49183;51.380;0.098;2022-09-09T09:05:19;19.95;;;15.00;;
63093;SDS011;49183;51.380;0.098;2022-09-09T09:08:36;21.25;;;17.50;;
63093;SDS011;49183;51.380;0.098;2022-09-09T09:14:55;23.55;;;16.52;;
63093;SDS011;49183;51.380;0.098;2022-09-09T09:17:56;17.85;;;15.95;;
63093;SDS011;49183;51.380;0.098;2022-09-09T09:21:03;18.83;;;13.80;;
63093;SDS011;49183;51.380;0.098;2022-09-09T09:24:17;19.13;;;14.52;;
63093;SDS011;49183;51.380;0.098;2022-09-09T09:27:43;17.48;;;14.90;;
63093;SDS011;49183;51.380;0.098;2022-09-09T09:31:05;16.08;;;13.40;;
63093;SDS011;49183;51.380;0.098;2022-09-09T09:34:07;20.70;;;14.60;;
63093;SDS011;49183;51.380;0.098;2022-09-09T09:37:15;22.98;;;13.35;;
63093;SDS011;49183;51.380;0.098;2022-09-09T09:40:20;15.05;;;12.65;;
63093;SDS011;49183;51.380;0.098;2022-09-09T09:43:18;15.25;;;12.77;;
63093;SDS011;49183;51.380;0.098;2022-09-09T09:46:26;14.30;;;11.88;;
63093;SDS011;49183;51.380;0.098;2022-09-09T09:49:28;15.27;;;12.73;;
63093;SDS011;49183;51.380;0.098;2022-09-09T09:52:30;15.13;;;11.98;;
63093;SDS011;49183;51.380;0.098;2022-09-09T09:55:34;13.13;;;11.73;;
63093;SDS011;49183;51.380;0.098;2022-09-09T09:58:57;15.02;;;11.30;;
63093;SDS011;49183;51.380;0.098;2022-09-09T10:02:20;15.02;;;11.40;;
63093;SDS011;49183;51.380;0.098;2022-09-09T10:05:29;14.05;;;12.38;;
63093;SDS011;49183;51.380;0.098;2022-09-09T10:08:34;17.45;;;14.27;;
63093;SDS011;49183;51.380;0.098;2022-09-09T10:21:56;15.98;;;14.02;;
63093;SDS011;49183;51.380;0.098;2022-09-09T10:38:39;14.15;;;11.02;;
63093;SDS011;49183;51.380;0.098;2022-09-09T10:57:52;8.73;;;6.80;;
63093;SDS011;49183;51.380;0.098;2022-09-09T11:00:57;10.13;;;7.03;;
63093;SDS011;49183;51.380;0.098;2022-09-09T11:04:05;14.80;;;7.25;;
63093;SDS011;49183;51.380;0.098;2022-09-09T11:20:42;9.98;;;5.95;;
63093;SDS011;49183;51.380;0.098;2022-09-09T11:23:47;11.85;;;6.88;;
63093;SDS011;49183;51.380;0.098;2022-09-09T11:26:55;7.88;;;6.68;;
63093;SDS011;49183;51.380;0.098;2022-09-09T11:37:17;9.70;;;7.43;;
63093;SDS011;49183;51.380;0.098;2022-09-09T11:40:22;8.93;;;6.65;;
63093;SDS011;49183;51.380;0.098;2022-09-09T11:46:54;12.90;;;6.13;;
63093;SDS011;49183;51.380;0.098;2022-09-09T11:50:06;9.35;;;5.60;;
63093;SDS011;49183;51.380;0.098;2022-09-09T11:53:28;8.40;;;5.85;;
63093;SDS011;49183;51.380;0.098;2022-09-09T11:56:33;9.60;;;5.70;;
63093;SDS011;49183;51.380;0.098;2022-09-09T11:59:50;9.45;;;5.68;;
63093;SDS011;49183;51.380;0.098;2022-09-09T12:02:51;7.85;;;6.13;;
63093;SDS011;49183;51.380;0.098;2022-09-09T12:05:52;12.55;;;5.75;;
63093;SDS011;49183;51.380;0.098;2022-09-09T12:08:56;7.40;;;6.05;;
63093;SDS011;49183;51.380;0.098;2022-09-09T12:15:18;6.03;;;4.18;;
63093;SDS011;49183;51.380;0.098;2022-09-09T12:24:45;6.65;;;3.42;;
63093;SDS011;49183;51.380;0.098;2022-09-09T12:31:12;5.60;;;3.20;;
63093;SDS011;49183;51.380;0.098;2022-09-09T12:34:36;8.27;;;3.33;;
63093;SDS011;49183;51.380;0.098;2022-09-09T12:37:46;5.65;;;3.45;;
63093;SDS011;49183;51.380;0.098;2022-09-09T12:40:54;4.43;;;3.00;;
63093;SDS011;49183;51.380;0.098;2022-09-09T12:44:03;5.82;;;5.05;;
63093;SDS011;49183;51.380;0.098;2022-09-09T12:47:05;9.77;;;7.50;;
63093;SDS011;49183;51.380;0.098;2022-09-09T12:50:16;9.07;;;7.63;;
63093;SDS011;49183;51.380;0.098;2022-09-09T12:53:29;9.43;;;6.03;;
63093;SDS011;49183;51.380;0.098;2022-09-09T12:56:33;7.97;;;5.75;;
63093;SDS011;49183;51.380;0.098;2022-09-09T12:59:37;9.13;;;5.20;;
63093;SDS011;49183;51.380;0.098;2022-09-09T13:02:57;6.22;;;4.03;;
63093;SDS011;49183;51.380;0.098;2022-09-09T13:06:10;8.40;;;5.70;;
63093;SDS011;49183;51.380;0.098;2022-09-09T13:09:15;8.43;;;5.32;;
63093;SDS011;49183;51.380;0.098;2022-09-09T13:12:18;5.35;;;3.33;;
63093;SDS011;49183;51.380;0.098;2022-09-09T13:15:24;6.32;;;2.75;;
63093;SDS011;49183;51.380;0.098;2022-09-09T13:18:29;6.82;;;2.35;;
63093;SDS011;49183;51.380;0.098;2022-09-09T13:21:34;8.48;;;2.83;;
63093;SDS011;49183;51.380;0.098;2022-09-09T13:24:39;4.57;;;2.95;;
63093;SDS011;49183;51.380;0.098;2022-09-09T13:27:41;8.10;;;4.32;;
63093;SDS011;49183;51.380;0.098;2022-09-09T13:30:58;10.95;;;4.13;;
63093;SDS011;49183;51.380;0.098;2022-09-09T13:37:34;11.55;;;5.82;;
63093;SDS011;49183;51.380;0.098;2022-09-09T13:40:39;9.10;;;5.25;;
63093;SDS011;49183;51.380;0.098;2022-09-09T13:43:45;8.63;;;5.10;;
63093;SDS011;49183;51.380;0.098;2022-09-09T13:46:46;7.70;;;4.95;;
63093;SDS011;49183;51.380;0.098;2022-09-09T13:49:47;4.82;;;3.72;;
63093;SDS011;49183;51.380;0.098;2022-09-09T13:52:56;9.63;;;5.63;;
63093;SDS011;49183;51.380;0.098;2022-09-09T13:55:58;12.38;;;6.32;;
63093;SDS011;49183;51.380;0.098;2022-09-09T13:59:00;9.35;;;5.93;;
63093;SDS011;49183;51.380;0.098;2022-09-09T14:02:02;11.63;;;5.47;;
63093;SDS011;49183;51.380;0.098;2022-09-09T14:05:03;7.30;;;3.97;;
63093;SDS011;49183;51.380;0.098;2022-09-09T14:08:04;5.72;;;3.17;;
63093;SDS011;49183;51.380;0.098;2022-09-09T14:11:08;6.72;;;3.28;;
63093;SDS011;49183;51.380;0.098;2022-09-09T14:14:14;7.82;;;4.53;;
63093;SDS011;49183;51.380;0.098;2022-09-09T14:17:15;11.88;;;5.40;;
63093;SDS011;49183;51.380;0.098;2022-09-09T14:20:17;8.27;;;5.63;;
63093;SDS011;49183;51.380;0.098;2022-09-09T14:23:18;7.97;;;4.70;;
63093;SDS011;49183;51.380;0.098;2022-09-09T14:26:20;7.68;;;4.93;;
63093;SDS011;49183;51.380;0.098;2022-09-09T14:29:23;10.82;;;5.32;;
63093;SDS011;49183;51.380;0.098;2022-09-09T14:32:24;5.63;;;3.65;;
63093;SDS011;49183;51.380;0.098;2022-09-09T14:35:25;5.63;;;3.10;;
63093;SDS011;49183;51.380;0.098;2022-09-09T14:38:33;3.63;;;2.72;;
63093;SDS011;49183;51.380;0.098;2022-09-09T14:41:36;7.78;;;3.75;;
63093;SDS011;49183;51.380;0.098;2022-09-09T14:44:37;3.90;;;2.90;;
63093;SDS011;49183;51.380;0.098;2022-09-09T14:47:38;4.05;;;2.00;;
63093;SDS011;49183;51.380;0.098;2022-09-09T14:50:39;6.05;;;3.03;;
63093;SDS011;49183;51.380;0.098;2022-09-09T14:53:42;5.70;;;3.00;;
63093;SDS011;49183;51.380;0.098;2022-09-09T14:56:44;6.90;;;2.30;;
63093;SDS011;49183;51.380;0.098;2022-09-09T14:59:45;7.22;;;2.63;;
63093;SDS011;49183;51.380;0.098;2022-09-09T15:02:46;6.53;;;3.00;;
63093;SDS011;49183;51.380;0.098;2022-09-09T15:05:47;6.05;;;3.00;;
63093;SDS011;49183;51.380;0.098;2022-09-09T15:08:49;5.78;;;2.28;;
63093;SDS011;49183;51.380;0.098;2022-09-09T15:11:52;6.63;;;2.80;;
63093;SDS011;49183;51.380;0.098;2022-09-09T15:14:54;7.13;;;2.83;;
63093;SDS011;49183;51.380;0.098;2022-09-09T15:17:55;4.68;;;2.55;;
63093;SDS011;49183;51.380;0.098;2022-09-09T15:20:56;4.78;;;2.78;;
63093;SDS011;49183;51.380;0.098;2022-09-09T15:23:58;4.68;;;2.67;;
63093;SDS011;49183;51.380;0.098;2022-09-09T15:27:01;5.93;;;2.28;;
63093;SDS011;49183;51.380;0.098;2022-09-09T15:30:02;3.75;;;2.70;;
63093;SDS011;49183;51.380;0.098;2022-09-09T15:33:07;4.65;;;3.00;;
63093;SDS011;49183;51.380;0.098;2022-09-09T15:36:12;6.18;;;3.83;;
63093;SDS011;49183;51.380;0.098;2022-09-09T15:39:22;6.32;;;3.33;;
63093;SDS011;49183;51.380;0.098;2022-09-09T15:42:24;5.35;;;2.95;;
63093;SDS011;49183;51.380;0.098;2022-09-09T15:45:25;5.75;;;3.08;;
63093;SDS011;49183;51.380;0.098;2022-09-09T15:48:29;5.07;;;3.60;;
63093;SDS011;49183;51.380;0.098;2022-09-09T15:51:33;4.72;;;3.00;;
63093;SDS011;49183;51.380;0.098;2022-09-09T15:54:37;6.43;;;3.45;;
63093;SDS011;49183;51.380;0.098;2022-09-09T15:57:38;4.65;;;3.85;;
63093;SDS011;49183;51.380;0.098;2022-09-09T16:00:39;7.95;;;3.60;;
63093;SDS011;49183;51.380;0.098;2022-09-09T16:03:40;5.30;;;3.80;;
63093;SDS011;49183;51.380;0.098;2022-09-09T16:06:43;2.33;;;2.13;;
63093;SDS011;49183;51.380;0.098;2022-09-09T16:09:44;3.00;;;0.70;;
63093;SDS011;49183;51.380;0.098;2022-09-09T16:12:46;3.38;;;0.75;;
63093;SDS011;49183;51.380;0.098;2022-09-09T16:15:53;3.20;;;0.80;;
63093;SDS011;49183;51.380;0.098;2022-09-09T16:18:55;6.97;;;1.17;;
63093;SDS011;49183;51.380;0.098;2022-09-09T16:21:57;4.07;;;0.90;;
63093;SDS011;49183;51.380;0.098;2022-09-09T16:24:59;4.72;;;1.23;;
63093;SDS011;49183;51.380;0.098;2022-09-09T16:28:00;2.00;;;0.90;;
63093;SDS011;49183;51.380;0.098;2022-09-09T16:31:04;3.75;;;1.15;;
63093;SDS011;49183;51.380;0.098;2022-09-09T16:34:09;2.10;;;0.85;;
63093;SDS011;49183;51.380;0.098;2022-09-09T16:37:10;2.22;;;1.02;;
63093;SDS011;49183;51.380;0.098;2022-09-09T16:40:11;6.18;;;1.10;;
63093;SDS011;49183;51.380;0.098;2022-09-09T16:43:12;2.17;;;1.23;;
63093;SDS011;49183;51.380;0.098;2022-09-09T16:46:14;2.70;;;1.20;;
63093;SDS011;49183;51.380;0.098;2022-09-09T16:49:17;2.70;;;0.93;;
63093;SDS011;49183;51.380;0.098;2022-09-09T16:52:18;2.85;;;1.23;;
63093;SDS011;49183;51.380;0.098;2022-09-09T16:55:19;5.90;;;1.25;;
63093;SDS011;49183;51.380;0.098;2022-09-09T16:58:20;2.28;;;1.35;;
63093;SDS011;49183;51.380;0.098;2022-09-09T17:01:22;5.63;;;2.03;;
63093;SDS011;49183;51.380;0.098;2022-09-09T17:04:25;4.22;;;1.42;;
63093;SDS011;49183;51.380;0.098;2022-09-09T17:07:27;5.97;;;1.33;;
63093;SDS011;49183;51.380;0.098;2022-09-09T17:10:29;3.58;;;1.45;;
63093;SDS011;49183;51.380;0.098;2022-09-09T17:13:31;6.95;;;1.52;;
63093;SDS011;49183;51.380;0.098;2022-09-09T17:16:32;3.17;;;1.73;;
63093;SDS011;49183;51.380;0.098;2022-09-09T17:19:34;4.93;;;1.50;;
63093;SDS011;49183;51.380;0.098;2022-09-09T17:22:28;3.22;;;1.30;;
63093;SDS011;49183;51.380;0.098;2022-09-09T17:25:29;3.38;;;1.30;;
63093;SDS011;49183;51.380;0.098;2022-09-09T17:28:30;4.22;;;1.65;;
63093;SDS011;49183;51.380;0.098;2022-09-09T17:31:31;3.80;;;1.90;;
63093;SDS011;49183;51.380;0.098;2022-09-09T17:34:34;4.45;;;1.40;;
63093;SDS011;49183;51.380;0.098;2022-09-09T17:37:35;4.30;;;1.00;;
63093;SDS011;49183;51.380;0.098;2022-09-09T17:40:29;2.22;;;1.30;;
63093;SDS011;49183;51.380;0.098;2022-09-09T17:43:30;4.03;;;1.08;;
63093;SDS011;49183;51.380;0.098;2022-09-09T17:46:32;3.38;;;1.05;;
63093;SDS011;49183;51.380;0.098;2022-09-09T17:49:34;3.80;;;0.90;;
63093;SDS011;49183;51.380;0.098;2022-09-09T17:52:35;2.58;;;1.23;;
63093;SDS011;49183;51.380;0.098;2022-09-09T17:55:36;5.90;;;1.80;;
63093;SDS011;49183;51.380;0.098;2022-09-09T17:58:38;3.92;;;1.27;;
63093;SDS011;49183;51.380;0.098;2022-09-09T18:01:41;5.57;;;2.40;;
63093;SDS011;49183;51.380;0.098;2022-09-09T18:04:43;5.03;;;2.15;;
63093;SDS011;49183;51.380;0.098;2022-09-09T18:07:44;6.82;;;1.95;;
63093;SDS011;49183;51.380;0.098;2022-09-09T18:10:51;3.75;;;1.80;;
63093;SDS011;49183;51.380;0.098;2022-09-09T18:13:54;3.13;;;1.65;;
63093;SDS011;49183;51.380;0.098;2022-09-09T18:16:58;3.22;;;1.92;;
63093;SDS011;49183;51.380;0.098;2022-09-09T18:19:59;3.80;;;1.83;;
63093;SDS011;49183;51.380;0.098;2022-09-09T18:23:00;3.97;;;2.10;;
63093;SDS011;49183;51.380;0.098;2022-09-09T18:26:08;4.68;;;2.35;;
63093;SDS011;49183;51.380;0.098;2022-09-09T18:29:18;5.88;;;2.40;;
63093;SDS011;49183;51.380;0.098;2022-09-09T18:32:20;4.53;;;2.67;;
63093;SDS011;49183;51.380;0.098;2022-09-09T18:35:22;5.85;;;2.70;;
63093;SDS011;49183;51.380;0.098;2022-09-09T18:38:23;7.38;;;2.63;;
63093;SDS011;49183;51.380;0.098;2022-09-09T18:41:26;4.70;;;3.00;;
63093;SDS011;49183;51.380;0.098;2022-09-09T18:44:33;5.82;;;2.83;;
63093;SDS011;49183;51.380;0.098;2022-09-09T18:47:35;4.90;;;3.40;;
63093;SDS011;49183;51.380;0.098;2022-09-09T18:50:37;5.45;;;3.33;;
63093;SDS011;49183;51.380;0.098;2022-09-09T18:53:39;3.83;;;3.05;;
63093;SDS011;49183;51.380;0.098;2022-09-09T18:56:40;8.45;;;4.10;;
63093;SDS011;49183;51.380;0.098;2022-09-09T18:59:42;5.90;;;4.07;;
63093;SDS011;49183;51.380;0.098;2022-09-09T19:02:47;6.38;;;4.00;;
63093;SDS011;49183;51.380;0.098;2022-09-09T19:05:49;10.55;;;5.32;;
63093;SDS011;49183;51.380;0.098;2022-09-09T19:08:51;10.27;;;4.65;;
63093;SDS011;49183;51.380;0.098;2022-09-09T19:11:52;9.13;;;5.65;;
63093;SDS011;49183;51.380;0.098;2022-09-09T19:14:53;8.77;;;6.18;;
63093;SDS011;49183;51.380;0.098;2022-09-09T19:17:54;13.23;;;8.20;;
63093;SDS011;49183;51.380;0.098;2022-09-09T19:20:55;17.58;;;10.95;;
63093;SDS011;49183;51.380;0.098;2022-09-09T19:27:03;15.90;;;7.75;;
63093;SDS011;49183;51.380;0.098;2022-09-09T19:30:05;12.82;;;7.97;;
63093;SDS011;49183;51.380;0.098;2022-09-09T19:33:07;14.20;;;8.07;;
63093;SDS011;49183;51.380;0.098;2022-09-09T19:36:09;18.30;;;12.25;;
63093;SDS011;49183;51.380;0.098;2022-09-09T19:39:12;18.50;;;11.65;;
63093;SDS011;49183;51.380;0.098;2022-09-09T19:42:13;19.30;;;10.88;;
63093;SDS011;49183;51.380;0.098;2022-09-09T19:45:14;16.85;;;10.27;;
63093;SDS011;49183;51.380;0.098;2022-09-09T19:48:15;15.88;;;10.65;;
63093;SDS011;49183;51.380;0.098;2022-09-09T19:51:20;22.83;;;13.63;;
63093;SDS011;49183;51.380;0.098;2022-09-09T19:54:21;22.05;;;10.23;;
63093;SDS011;49183;51.380;0.098;2022-09-09T19:57:22;19.60;;;11.75;;
63093;SDS011;49183;51.380;0.098;2022-09-09T20:00:23;19.10;;;10.07;;
63093;SDS011;49183;51.380;0.098;2022-09-09T20:03:25;16.05;;;9.48;;
63093;SDS011;49183;51.380;0.098;2022-09-09T20:06:28;16.30;;;9.65;;
63093;SDS011;49183;51.380;0.098;2022-09-09T20:09:30;16.15;;;10.00;;
63093;SDS011;49183;51.380;0.098;2022-09-09T20:12:31;15.40;;;9.18;;
63093;SDS011;49183;51.380;0.098;2022-09-09T20:15:32;15.23;;;10.02;;
63093;SDS011;49183;51.380;0.098;2022-09-09T20:18:36;17.50;;;11.32;;
63093;SDS011;49183;51.380;0.098;2022-09-09T20:21:39;16.98;;;10.90;;
63093;SDS011;49183;51.380;0.098;2022-09-09T20:24:41;16.23;;;10.27;;
63093;SDS011;49183;51.380;0.098;2022-09-09T20:27:42;13.73;;;9.35;;
63093;SDS011;49183;51.380;0.098;2022-09-09T20:30:43;15.93;;;11.25;;
63093;SDS011;49183;51.380;0.098;2022-09-09T20:33:44;13.75;;;10.05;;
63093;SDS011;49183;51.380;0.098;2022-09-09T20:36:46;15.48;;;10.77;;